Allen's Hourly Summary for Wednesday, July 11, 2018
Hour Temp
(f)
RH
(%)
Solar Rad.
(MJ/m2)
Rainfall
(in)
Wind
(mph)
7/11/2018 12:00 AM 76 76 0 0 0
7/11/2018 1:00 AM 76 79 0 0 0
7/11/2018 2:00 AM 76 78 0 0 0.15
7/11/2018 3:00 AM 76 78 0 0 0.03
7/11/2018 4:00 AM 76 78 0 0 0.3
7/11/2018 5:00 AM 74 85 0 0 0.01
7/11/2018 6:00 AM 74 86 0 0 0
7/11/2018 7:00 AM 75 83 0.03 0 0.22
7/11/2018 8:00 AM 75 83 0.14 0 0.38
7/11/2018 9:00 AM 76 78 0.38 0 1.14
7/11/2018 10:00 AM 79 72 0.84 0 1.54
7/11/2018 11:00 AM 83 58 2.25 0 1.64
7/11/2018 12:00 PM 88 49 2.46 0 1.17
7/11/2018 1:00 PM 92 36 3.3 0 1.73
7/11/2018 2:00 PM 94 35 3.16 0 1.73
7/11/2018 3:00 PM 93 34 1.52 0 1.15
7/11/2018 4:00 PM 95 27 2.23 0 1.23
7/11/2018 5:00 PM 96 28 2.35 0 1.77
7/11/2018 6:00 PM 94 33 1.08 0 1.1
7/11/2018 7:00 PM 91 38 0.54 0 2.93
7/11/2018 8:00 PM 87 51 0.31 0 3.89
7/11/2018 9:00 PM 85 56 0.04 0 2.01
7/11/2018 10:00 PM 83 59 0 0 2.9
7/11/2018 11:00 PM 81 63 0 0 1.97
Data Summary 83 60 20.63 0.00 1.21